sensor_id;sensor_type;location;lat;lon;timestamp;pressure;altitude;pressure_sealevel;temperature;humidity
46127;BME280;31859;55.030;-1.550;2022-08-06T00:02:29;101740.40;;;11.00;100.00
46127;BME280;31859;55.030;-1.550;2022-08-06T00:04:57;101743.94;;;11.57;100.00
46127;BME280;31859;55.030;-1.550;2022-08-06T00:07:24;101743.13;;;10.63;100.00
46127;BME280;31859;55.030;-1.550;2022-08-06T00:09:52;101745.41;;;11.71;100.00
46127;BME280;31859;55.030;-1.550;2022-08-06T00:12:19;101747.70;;;11.19;100.00
46127;BME280;31859;55.030;-1.550;2022-08-06T00:14:46;101754.70;;;11.15;100.00
46127;BME280;31859;55.030;-1.550;2022-08-06T00:17:14;101754.94;;;10.64;100.00
46127;BME280;31859;55.030;-1.550;2022-08-06T00:19:41;101754.15;;;10.78;100.00
46127;BME280;31859;55.030;-1.550;2022-08-06T00:22:08;101757.87;;;11.30;100.00
46127;BME280;31859;55.030;-1.550;2022-08-06T00:24:36;101759.84;;;11.59;100.00
46127;BME280;31859;55.030;-1.550;2022-08-06T00:27:03;101754.00;;;11.13;100.00
46127;BME280;31859;55.030;-1.550;2022-08-06T00:29:31;101756.10;;;11.45;100.00
46127;BME280;31859;55.030;-1.550;2022-08-06T00:31:57;101758.10;;;11.17;100.00
46127;BME280;31859;55.030;-1.550;2022-08-06T00:34:25;101755.56;;;11.12;100.00
46127;BME280;31859;55.030;-1.550;2022-08-06T00:36:51;101750.51;;;10.04;100.00
46127;BME280;31859;55.030;-1.550;2022-08-06T00:39:19;101755.87;;;11.12;100.00
46127;BME280;31859;55.030;-1.550;2022-08-06T00:41:47;101756.99;;;11.63;100.00
46127;BME280;31859;55.030;-1.550;2022-08-06T00:44:14;101752.61;;;10.09;100.00
46127;BME280;31859;55.030;-1.550;2022-08-06T00:46:42;101754.53;;;11.13;100.00
46127;BME280;31859;55.030;-1.550;2022-08-06T00:49:09;101753.97;;;10.72;100.00
46127;BME280;31859;55.030;-1.550;2022-08-06T00:51:37;101753.81;;;10.69;100.00
46127;BME280;31859;55.030;-1.550;2022-08-06T00:54:04;101756.12;;;10.48;100.00
46127;BME280;31859;55.030;-1.550;2022-08-06T00:56:31;101759.02;;;10.34;100.00
46127;BME280;31859;55.030;-1.550;2022-08-06T00:58:58;101762.92;;;10.21;100.00
46127;BME280;31859;55.030;-1.550;2022-08-06T01:01:25;101760.34;;;9.44;100.00
46127;BME280;31859;55.030;-1.550;2022-08-06T01:03:53;101761.18;;;10.25;100.00
46127;BME280;31859;55.030;-1.550;2022-08-06T01:06:21;101761.35;;;9.75;100.00
46127;BME280;31859;55.030;-1.550;2022-08-06T01:08:48;101757.04;;;10.08;100.00
46127;BME280;31859;55.030;-1.550;2022-08-06T01:11:15;101753.52;;;10.47;100.00
46127;BME280;31859;55.030;-1.550;2022-08-06T01:13:42;101758.61;;;10.90;100.00
46127;BME280;31859;55.030;-1.550;2022-08-06T01:16:14;101756.56;;;11.04;100.00
46127;BME280;31859;55.030;-1.550;2022-08-06T01:18:50;101756.71;;;10.49;100.00
46127;BME280;31859;55.030;-1.550;2022-08-06T01:21:49;101755.18;;;10.62;100.00
46127;BME280;31859;55.030;-1.550;2022-08-06T01:25:02;101759.63;;;11.02;100.00
46127;BME280;31859;55.030;-1.550;2022-08-06T01:27:40;101766.11;;;10.72;100.00
46127;BME280;31859;55.030;-1.550;2022-08-06T01:30:12;101760.98;;;10.38;100.00
46127;BME280;31859;55.030;-1.550;2022-08-06T01:32:45;101754.78;;;10.07;100.00
46127;BME280;31859;55.030;-1.550;2022-08-06T01:35:17;101754.67;;;9.80;100.00
46127;BME280;31859;55.030;-1.550;2022-08-06T01:37:50;101759.46;;;9.85;100.00
46127;BME280;31859;55.030;-1.550;2022-08-06T01:40:30;101756.70;;;10.19;100.00
46127;BME280;31859;55.030;-1.550;2022-08-06T01:42:59;101754.41;;;10.09;100.00
46127;BME280;31859;55.030;-1.550;2022-08-06T01:45:29;101748.89;;;10.29;100.00
46127;BME280;31859;55.030;-1.550;2022-08-06T01:48:01;101749.30;;;10.36;100.00
46127;BME280;31859;55.030;-1.550;2022-08-06T01:50:31;101749.46;;;8.86;100.00
46127;BME280;31859;55.030;-1.550;2022-08-06T01:53:02;101753.00;;;9.34;100.00
46127;BME280;31859;55.030;-1.550;2022-08-06T01:55:32;101755.59;;;9.12;100.00
46127;BME280;31859;55.030;-1.550;2022-08-06T01:58:02;101752.04;;;8.84;100.00
46127;BME280;31859;55.030;-1.550;2022-08-06T02:00:33;101750.64;;;8.51;100.00
46127;BME280;31859;55.030;-1.550;2022-08-06T02:03:08;101756.74;;;9.02;100.00
46127;BME280;31859;55.030;-1.550;2022-08-06T02:05:37;101753.29;;;9.48;100.00
46127;BME280;31859;55.030;-1.550;2022-08-06T02:08:05;101756.13;;;8.65;100.00
46127;BME280;31859;55.030;-1.550;2022-08-06T02:10:35;101753.05;;;8.92;100.00
46127;BME280;31859;55.030;-1.550;2022-08-06T02:13:03;101754.02;;;9.03;100.00
46127;BME280;31859;55.030;-1.550;2022-08-06T02:15:32;101751.50;;;8.19;100.00
46127;BME280;31859;55.030;-1.550;2022-08-06T02:18:03;101751.76;;;8.26;100.00
46127;BME280;31859;55.030;-1.550;2022-08-06T02:20:34;101754.63;;;9.12;100.00
46127;BME280;31859;55.030;-1.550;2022-08-06T02:23:04;101758.54;;;9.19;100.00
46127;BME280;31859;55.030;-1.550;2022-08-06T02:25:34;101755.61;;;8.84;100.00
46127;BME280;31859;55.030;-1.550;2022-08-06T02:28:03;101752.72;;;8.65;100.00
46127;BME280;31859;55.030;-1.550;2022-08-06T02:30:41;101757.11;;;8.61;100.00
46127;BME280;31859;55.030;-1.550;2022-08-06T02:33:10;101766.03;;;8.79;100.00
46127;BME280;31859;55.030;-1.550;2022-08-06T02:35:42;101769.92;;;9.21;100.00
46127;BME280;31859;55.030;-1.550;2022-08-06T02:38:19;101773.56;;;9.06;100.00
46127;BME280;31859;55.030;-1.550;2022-08-06T02:40:55;101775.61;;;8.75;100.00
46127;BME280;31859;55.030;-1.550;2022-08-06T02:43:30;101775.28;;;9.05;100.00
46127;BME280;31859;55.030;-1.550;2022-08-06T02:46:06;101774.87;;;9.36;100.00
46127;BME280;31859;55.030;-1.550;2022-08-06T02:48:40;101775.48;;;9.91;100.00
46127;BME280;31859;55.030;-1.550;2022-08-06T02:51:11;101780.72;;;9.67;100.00
46127;BME280;31859;55.030;-1.550;2022-08-06T02:53:43;101779.93;;;10.68;100.00
46127;BME280;31859;55.030;-1.550;2022-08-06T02:56:13;101789.21;;;10.78;100.00
46127;BME280;31859;55.030;-1.550;2022-08-06T02:58:43;101788.02;;;9.63;100.00
46127;BME280;31859;55.030;-1.550;2022-08-06T03:01:15;101786.37;;;10.07;100.00
46127;BME280;31859;55.030;-1.550;2022-08-06T03:03:45;101783.28;;;9.57;100.00
46127;BME280;31859;55.030;-1.550;2022-08-06T03:06:15;101782.11;;;9.80;100.00
46127;BME280;31859;55.030;-1.550;2022-08-06T03:08:45;101777.13;;;10.07;100.00
46127;BME280;31859;55.030;-1.550;2022-08-06T03:11:15;101772.14;;;9.48;100.00
46127;BME280;31859;55.030;-1.550;2022-08-06T03:13:43;101772.75;;;9.77;100.00
46127;BME280;31859;55.030;-1.550;2022-08-06T03:16:12;101778.65;;;9.67;100.00
46127;BME280;31859;55.030;-1.550;2022-08-06T03:18:42;101777.29;;;10.74;100.00
46127;BME280;31859;55.030;-1.550;2022-08-06T03:21:10;101772.11;;;10.37;100.00
46127;BME280;31859;55.030;-1.550;2022-08-06T03:23:40;101780.02;;;10.48;100.00
46127;BME280;31859;55.030;-1.550;2022-08-06T03:26:09;101777.81;;;10.66;100.00
46127;BME280;31859;55.030;-1.550;2022-08-06T03:28:37;101776.74;;;9.96;100.00
46127;BME280;31859;55.030;-1.550;2022-08-06T03:31:04;101775.14;;;10.65;100.00
46127;BME280;31859;55.030;-1.550;2022-08-06T03:33:33;101787.84;;;11.00;100.00
46127;BME280;31859;55.030;-1.550;2022-08-06T03:36:01;101784.37;;;10.22;100.00
46127;BME280;31859;55.030;-1.550;2022-08-06T03:38:34;101773.47;;;10.02;100.00
46127;BME280;31859;55.030;-1.550;2022-08-06T03:41:05;101770.75;;;9.35;100.00
46127;BME280;31859;55.030;-1.550;2022-08-06T03:43:34;101767.81;;;9.46;100.00
46127;BME280;31859;55.030;-1.550;2022-08-06T03:46:03;101771.84;;;9.88;100.00
46127;BME280;31859;55.030;-1.550;2022-08-06T03:48:34;101777.31;;;9.88;100.00
46127;BME280;31859;55.030;-1.550;2022-08-06T03:51:05;101781.35;;;10.28;100.00
46127;BME280;31859;55.030;-1.550;2022-08-06T03:53:38;101783.45;;;10.15;100.00
46127;BME280;31859;55.030;-1.550;2022-08-06T03:56:07;101784.54;;;9.90;100.00
46127;BME280;31859;55.030;-1.550;2022-08-06T03:58:37;101784.89;;;9.73;100.00
46127;BME280;31859;55.030;-1.550;2022-08-06T04:01:07;101785.71;;;10.39;100.00
46127;BME280;31859;55.030;-1.550;2022-08-06T04:03:37;101786.02;;;9.87;100.00
46127;BME280;31859;55.030;-1.550;2022-08-06T04:06:06;101787.31;;;9.83;100.00
46127;BME280;31859;55.030;-1.550;2022-08-06T04:08:34;101787.50;;;10.08;100.00
46127;BME280;31859;55.030;-1.550;2022-08-06T04:11:02;101789.24;;;9.85;100.00
46127;BME280;31859;55.030;-1.550;2022-08-06T04:13:29;101789.23;;;9.51;100.00
46127;BME280;31859;55.030;-1.550;2022-08-06T04:15:56;101786.94;;;9.65;100.00
46127;BME280;31859;55.030;-1.550;2022-08-06T04:18:27;101782.86;;;9.61;100.00
46127;BME280;31859;55.030;-1.550;2022-08-06T04:21:02;101784.13;;;10.01;100.00
46127;BME280;31859;55.030;-1.550;2022-08-06T04:23:30;101783.72;;;9.88;100.00
46127;BME280;31859;55.030;-1.550;2022-08-06T04:26:01;101776.49;;;9.88;100.00
46127;BME280;31859;55.030;-1.550;2022-08-06T04:28:30;101779.26;;;10.57;100.00
46127;BME280;31859;55.030;-1.550;2022-08-06T04:30:59;101777.42;;;10.64;100.00
46127;BME280;31859;55.030;-1.550;2022-08-06T04:33:27;101778.55;;;10.83;100.00
46127;BME280;31859;55.030;-1.550;2022-08-06T04:35:59;101777.71;;;10.33;100.00
46127;BME280;31859;55.030;-1.550;2022-08-06T04:38:27;101781.61;;;10.94;100.00
46127;BME280;31859;55.030;-1.550;2022-08-06T04:40:55;101783.45;;;10.32;100.00
46127;BME280;31859;55.030;-1.550;2022-08-06T04:43:22;101782.05;;;9.61;100.00
46127;BME280;31859;55.030;-1.550;2022-08-06T04:45:50;101781.64;;;9.90;100.00
46127;BME280;31859;55.030;-1.550;2022-08-06T04:48:18;101789.87;;;9.57;100.00
46127;BME280;31859;55.030;-1.550;2022-08-06T04:50:45;101795.28;;;9.70;100.00
46127;BME280;31859;55.030;-1.550;2022-08-06T04:53:15;101799.16;;;10.60;100.00
46127;BME280;31859;55.030;-1.550;2022-08-06T04:55:43;101804.64;;;10.33;100.00
46127;BME280;31859;55.030;-1.550;2022-08-06T04:58:13;101803.46;;;10.10;100.00
46127;BME280;31859;55.030;-1.550;2022-08-06T05:00:43;101807.31;;;9.80;100.00
46127;BME280;31859;55.030;-1.550;2022-08-06T05:03:11;101807.13;;;9.60;100.00
46127;BME280;31859;55.030;-1.550;2022-08-06T05:05:43;101809.88;;;9.16;100.00
46127;BME280;31859;55.030;-1.550;2022-08-06T05:08:13;101804.30;;;9.74;100.00
46127;BME280;31859;55.030;-1.550;2022-08-06T05:10:47;101810.12;;;9.89;100.00
46127;BME280;31859;55.030;-1.550;2022-08-06T05:13:16;101806.44;;;9.94;100.00
46127;BME280;31859;55.030;-1.550;2022-08-06T05:15:50;101802.43;;;10.21;100.00
46127;BME280;31859;55.030;-1.550;2022-08-06T05:18:23;101805.54;;;9.67;100.00
46127;BME280;31859;55.030;-1.550;2022-08-06T05:20:53;101806.28;;;9.82;100.00
46127;BME280;31859;55.030;-1.550;2022-08-06T05:23:26;101807.02;;;9.83;100.00
46127;BME280;31859;55.030;-1.550;2022-08-06T05:25:54;101806.88;;;10.01;100.00
46127;BME280;31859;55.030;-1.550;2022-08-06T05:28:22;101812.07;;;10.36;100.00
46127;BME280;31859;55.030;-1.550;2022-08-06T05:30:51;101811.75;;;10.31;100.00
46127;BME280;31859;55.030;-1.550;2022-08-06T05:33:27;101806.20;;;10.58;100.00
46127;BME280;31859;55.030;-1.550;2022-08-06T05:35:55;101806.85;;;10.37;100.00
46127;BME280;31859;55.030;-1.550;2022-08-06T05:38:23;101803.25;;;10.37;100.00
46127;BME280;31859;55.030;-1.550;2022-08-06T05:40:50;101803.61;;;10.69;100.00
46127;BME280;31859;55.030;-1.550;2022-08-06T05:43:17;101806.68;;;11.14;100.00
46127;BME280;31859;55.030;-1.550;2022-08-06T05:45:46;101805.63;;;10.79;100.00
46127;BME280;31859;55.030;-1.550;2022-08-06T05:48:17;101810.17;;;10.74;100.00
46127;BME280;31859;55.030;-1.550;2022-08-06T05:50:49;101811.26;;;11.29;100.00
46127;BME280;31859;55.030;-1.550;2022-08-06T05:53:21;101810.70;;;11.00;100.00
46127;BME280;31859;55.030;-1.550;2022-08-06T05:55:54;101811.32;;;11.35;100.00
46127;BME280;31859;55.030;-1.550;2022-08-06T05:58:27;101816.79;;;10.96;100.00
46127;BME280;31859;55.030;-1.550;2022-08-06T06:01:00;101823.25;;;10.88;100.00
46127;BME280;31859;55.030;-1.550;2022-08-06T06:03:28;101826.02;;;11.12;100.00
46127;BME280;31859;55.030;-1.550;2022-08-06T06:05:58;101825.59;;;11.33;100.00
46127;BME280;31859;55.030;-1.550;2022-08-06T06:08:26;101830.64;;;11.76;100.00
46127;BME280;31859;55.030;-1.550;2022-08-06T06:10:53;101839.19;;;11.58;100.00
46127;BME280;31859;55.030;-1.550;2022-08-06T06:13:22;101836.86;;;11.73;100.00
46127;BME280;31859;55.030;-1.550;2022-08-06T06:15:55;101841.22;;;11.83;100.00
46127;BME280;31859;55.030;-1.550;2022-08-06T06:18:32;101841.53;;;11.66;100.00
46127;BME280;31859;55.030;-1.550;2022-08-06T06:21:08;101841.63;;;11.26;100.00
46127;BME280;31859;55.030;-1.550;2022-08-06T06:23:42;101842.25;;;11.93;100.00
46127;BME280;31859;55.030;-1.550;2022-08-06T06:26:31;101843.90;;;11.75;100.00
46127;BME280;31859;55.030;-1.550;2022-08-06T06:29:06;101846.23;;;11.62;100.00
46127;BME280;31859;55.030;-1.550;2022-08-06T06:31:40;101842.79;;;11.45;100.00
46127;BME280;31859;55.030;-1.550;2022-08-06T06:34:14;101844.35;;;11.87;100.00
46127;BME280;31859;55.030;-1.550;2022-08-06T06:36:51;101840.82;;;11.40;100.00
46127;BME280;31859;55.030;-1.550;2022-08-06T06:39:27;101841.36;;;11.39;100.00
46127;BME280;31859;55.030;-1.550;2022-08-06T06:42:01;101841.68;;;12.03;100.00
46127;BME280;31859;55.030;-1.550;2022-08-06T06:44:34;101851.70;;;12.78;100.00
46127;BME280;31859;55.030;-1.550;2022-08-06T06:47:09;101854.71;;;13.14;100.00
46127;BME280;31859;55.030;-1.550;2022-08-06T06:49:42;101858.88;;;13.34;100.00
46127;BME280;31859;55.030;-1.550;2022-08-06T06:52:14;101861.86;;;13.17;100.00
46127;BME280;31859;55.030;-1.550;2022-08-06T06:54:47;101864.06;;;13.05;100.00
46127;BME280;31859;55.030;-1.550;2022-08-06T06:57:19;101863.56;;;12.85;100.00
46127;BME280;31859;55.030;-1.550;2022-08-06T06:59:50;101873.80;;;13.75;100.00
46127;BME280;31859;55.030;-1.550;2022-08-06T07:02:22;101873.27;;;13.68;100.00
46127;BME280;31859;55.030;-1.550;2022-08-06T07:04:49;101873.42;;;14.54;100.00
46127;BME280;31859;55.030;-1.550;2022-08-06T07:07:18;101871.06;;;14.51;100.00
46127;BME280;31859;55.030;-1.550;2022-08-06T07:09:47;101873.96;;;14.91;100.00
46127;BME280;31859;55.030;-1.550;2022-08-06T07:12:18;101876.50;;;15.07;100.00
46127;BME280;31859;55.030;-1.550;2022-08-06T07:14:48;101876.10;;;15.59;100.00
46127;BME280;31859;55.030;-1.550;2022-08-06T07:17:17;101878.38;;;15.10;100.00
46127;BME280;31859;55.030;-1.550;2022-08-06T07:19:47;101874.26;;;15.40;100.00
46127;BME280;31859;55.030;-1.550;2022-08-06T07:22:15;101873.90;;;15.28;100.00
46127;BME280;31859;55.030;-1.550;2022-08-06T07:24:43;101870.88;;;15.86;100.00
46127;BME280;31859;55.030;-1.550;2022-08-06T07:27:12;101872.97;;;15.41;100.00
46127;BME280;31859;55.030;-1.550;2022-08-06T07:29:40;101874.44;;;15.50;100.00
46127;BME280;31859;55.030;-1.550;2022-08-06T07:32:09;101874.14;;;15.41;100.00
46127;BME280;31859;55.030;-1.550;2022-08-06T07:34:36;101875.63;;;15.63;100.00
46127;BME280;31859;55.030;-1.550;2022-08-06T07:37:04;101885.48;;;15.07;100.00
46127;BME280;31859;55.030;-1.550;2022-08-06T07:39:37;101886.32;;;15.39;100.00
46127;BME280;31859;55.030;-1.550;2022-08-06T07:42:08;101883.74;;;15.31;100.00
46127;BME280;31859;55.030;-1.550;2022-08-06T07:44:37;101886.48;;;15.65;100.00
46127;BME280;31859;55.030;-1.550;2022-08-06T07:47:06;101889.92;;;15.14;100.00
46127;BME280;31859;55.030;-1.550;2022-08-06T07:49:39;101891.06;;;15.72;100.00
46127;BME280;31859;55.030;-1.550;2022-08-06T07:52:11;101890.24;;;14.99;100.00
46127;BME280;31859;55.030;-1.550;2022-08-06T07:54:40;101887.10;;;15.36;100.00
46127;BME280;31859;55.030;-1.550;2022-08-06T07:57:08;101892.53;;;14.72;100.00
46127;BME280;31859;55.030;-1.550;2022-08-06T07:59:36;101888.00;;;14.30;100.00
46127;BME280;31859;55.030;-1.550;2022-08-06T08:02:05;101888.07;;;15.90;100.00
46127;BME280;31859;55.030;-1.550;2022-08-06T08:04:34;101889.07;;;14.95;100.00
46127;BME280;31859;55.030;-1.550;2022-08-06T08:07:03;101887.79;;;15.55;100.00
46127;BME280;31859;55.030;-1.550;2022-08-06T08:09:32;101887.77;;;15.54;100.00
46127;BME280;31859;55.030;-1.550;2022-08-06T08:12:01;101885.67;;;15.38;100.00
46127;BME280;31859;55.030;-1.550;2022-08-06T08:14:29;101883.96;;;16.06;100.00
46127;BME280;31859;55.030;-1.550;2022-08-06T08:16:57;101889.24;;;16.30;100.00
46127;BME280;31859;55.030;-1.550;2022-08-06T08:19:26;101897.12;;;15.42;100.00
46127;BME280;31859;55.030;-1.550;2022-08-06T08:21:54;101889.46;;;15.44;100.00
46127;BME280;31859;55.030;-1.550;2022-08-06T08:24:21;101892.06;;;15.77;100.00
46127;BME280;31859;55.030;-1.550;2022-08-06T08:26:48;101892.68;;;16.09;100.00
46127;BME280;31859;55.030;-1.550;2022-08-06T08:29:16;101889.71;;;15.58;100.00
46127;BME280;31859;55.030;-1.550;2022-08-06T08:31:43;101891.63;;;16.16;100.00
46127;BME280;31859;55.030;-1.550;2022-08-06T08:34:10;101890.44;;;17.18;100.00
46127;BME280;31859;55.030;-1.550;2022-08-06T08:36:37;101891.70;;;17.10;100.00
46127;BME280;31859;55.030;-1.550;2022-08-06T08:39:05;101883.35;;;17.20;100.00
46127;BME280;31859;55.030;-1.550;2022-08-06T08:41:36;101882.78;;;16.96;100.00
46127;BME280;31859;55.030;-1.550;2022-08-06T08:44:07;101883.56;;;16.43;100.00
46127;BME280;31859;55.030;-1.550;2022-08-06T08:46:38;101884.49;;;17.13;100.00
46127;BME280;31859;55.030;-1.550;2022-08-06T08:49:07;101887.28;;;17.25;100.00
46127;BME280;31859;55.030;-1.550;2022-08-06T08:51:38;101893.53;;;16.50;100.00
46127;BME280;31859;55.030;-1.550;2022-08-06T08:54:09;101892.97;;;17.31;100.00
46127;BME280;31859;55.030;-1.550;2022-08-06T08:56:36;101894.06;;;16.59;100.00
46127;BME280;31859;55.030;-1.550;2022-08-06T08:59:04;101889.00;;;16.20;100.00
46127;BME280;31859;55.030;-1.550;2022-08-06T09:01:33;101886.11;;;15.04;100.00
46127;BME280;31859;55.030;-1.550;2022-08-06T09:04:02;101882.64;;;16.21;100.00
46127;BME280;31859;55.030;-1.550;2022-08-06T09:06:30;101881.74;;;16.57;100.00
46127;BME280;31859;55.030;-1.550;2022-08-06T09:08:58;101887.68;;;16.37;100.00
46127;BME280;31859;55.030;-1.550;2022-08-06T09:11:27;101891.25;;;16.19;100.00
46127;BME280;31859;55.030;-1.550;2022-08-06T09:13:55;101888.18;;;16.50;100.00
46127;BME280;31859;55.030;-1.550;2022-08-06T09:16:23;101884.92;;;16.20;100.00
46127;BME280;31859;55.030;-1.550;2022-08-06T09:18:51;101881.84;;;16.11;100.00
46127;BME280;31859;55.030;-1.550;2022-08-06T09:21:18;101888.26;;;16.98;100.00
46127;BME280;31859;55.030;-1.550;2022-08-06T09:23:45;101888.82;;;16.74;100.00
46127;BME280;31859;55.030;-1.550;2022-08-06T09:26:13;101886.41;;;15.93;100.00
46127;BME280;31859;55.030;-1.550;2022-08-06T09:28:42;101889.05;;;17.28;100.00
46127;BME280;31859;55.030;-1.550;2022-08-06T09:31:11;101882.06;;;16.86;100.00
46127;BME280;31859;55.030;-1.550;2022-08-06T09:33:40;101890.06;;;16.20;100.00
46127;BME280;31859;55.030;-1.550;2022-08-06T09:36:10;101896.72;;;15.60;100.00
46127;BME280;31859;55.030;-1.550;2022-08-06T09:38:47;101898.76;;;15.88;100.00
46127;BME280;31859;55.030;-1.550;2022-08-06T09:41:15;101898.86;;;16.86;100.00
46127;BME280;31859;55.030;-1.550;2022-08-06T09:43:43;101903.07;;;16.90;100.00
46127;BME280;31859;55.030;-1.550;2022-08-06T09:46:11;101901.88;;;16.57;100.00
46127;BME280;31859;55.030;-1.550;2022-08-06T09:48:55;101902.44;;;16.76;100.00
46127;BME280;31859;55.030;-1.550;2022-08-06T09:51:23;101902.63;;;16.95;100.00
46127;BME280;31859;55.030;-1.550;2022-08-06T09:53:53;101901.38;;;17.00;100.00
46127;BME280;31859;55.030;-1.550;2022-08-06T09:56:21;101908.29;;;16.99;100.00
46127;BME280;31859;55.030;-1.550;2022-08-06T09:58:48;101904.91;;;17.50;100.00
46127;BME280;31859;55.030;-1.550;2022-08-06T10:01:18;101901.40;;;17.25;100.00
46127;BME280;31859;55.030;-1.550;2022-08-06T10:03:46;101899.49;;;16.71;100.00
46127;BME280;31859;55.030;-1.550;2022-08-06T10:06:15;101903.87;;;17.20;100.00
46127;BME280;31859;55.030;-1.550;2022-08-06T10:08:43;101905.83;;;16.63;100.00
46127;BME280;31859;55.030;-1.550;2022-08-06T10:11:10;101904.10;;;17.59;100.00
46127;BME280;31859;55.030;-1.550;2022-08-06T10:13:38;101908.11;;;17.12;100.00
46127;BME280;31859;55.030;-1.550;2022-08-06T10:16:19;101906.68;;;17.95;100.00
46127;BME280;31859;55.030;-1.550;2022-08-06T10:18:48;101905.72;;;18.14;100.00
46127;BME280;31859;55.030;-1.550;2022-08-06T10:21:17;101907.33;;;18.33;100.00
46127;BME280;31859;55.030;-1.550;2022-08-06T10:23:46;101903.58;;;18.61;100.00
46127;BME280;31859;55.030;-1.550;2022-08-06T10:26:16;101904.84;;;18.27;92.94
46127;BME280;31859;55.030;-1.550;2022-08-06T10:28:45;101903.05;;;19.02;96.11
46127;BME280;31859;55.030;-1.550;2022-08-06T10:31:14;101903.48;;;18.84;86.58
46127;BME280;31859;55.030;-1.550;2022-08-06T10:33:59;101902.02;;;19.49;84.67
46127;BME280;31859;55.030;-1.550;2022-08-06T10:36:31;101898.53;;;19.91;74.99
46127;BME280;31859;55.030;-1.550;2022-08-06T10:39:02;101899.42;;;20.66;75.58
46127;BME280;31859;55.030;-1.550;2022-08-06T10:41:30;101894.06;;;20.60;73.89
46127;BME280;31859;55.030;-1.550;2022-08-06T10:44:00;101901.51;;;19.33;71.25
46127;BME280;31859;55.030;-1.550;2022-08-06T10:46:28;101896.44;;;18.90;68.78
46127;BME280;31859;55.030;-1.550;2022-08-06T10:48:57;101902.65;;;18.98;79.02
46127;BME280;31859;55.030;-1.550;2022-08-06T10:51:25;101895.65;;;18.46;75.67
46127;BME280;31859;55.030;-1.550;2022-08-06T10:53:54;101895.73;;;19.36;69.45
46127;BME280;31859;55.030;-1.550;2022-08-06T10:56:22;101894.05;;;19.58;64.84
46127;BME280;31859;55.030;-1.550;2022-08-06T10:58:51;101894.15;;;19.68;64.19
46127;BME280;31859;55.030;-1.550;2022-08-06T11:01:26;101887.18;;;20.36;60.56
46127;BME280;31859;55.030;-1.550;2022-08-06T11:04:05;101876.69;;;20.69;59.92
46127;BME280;31859;55.030;-1.550;2022-08-06T11:06:48;101875.35;;;20.90;61.28
46127;BME280;31859;55.030;-1.550;2022-08-06T11:10:02;101879.17;;;19.33;69.43
46127;BME280;31859;55.030;-1.550;2022-08-06T11:12:47;101875.44;;;20.49;62.15
46127;BME280;31859;55.030;-1.550;2022-08-06T11:15:17;101869.57;;;20.95;59.73
46127;BME280;31859;55.030;-1.550;2022-08-06T11:17:47;101868.86;;;22.83;53.33
46127;BME280;31859;55.030;-1.550;2022-08-06T11:20:48;101869.60;;;23.36;51.59
46127;BME280;31859;55.030;-1.550;2022-08-06T11:23:28;101864.78;;;22.36;50.89
46127;BME280;31859;55.030;-1.550;2022-08-06T11:25:57;101867.83;;;22.62;53.82
46127;BME280;31859;55.030;-1.550;2022-08-06T11:28:59;101865.02;;;22.85;52.56
46127;BME280;31859;55.030;-1.550;2022-08-06T11:31:32;101869.16;;;24.13;48.28
46127;BME280;31859;55.030;-1.550;2022-08-06T11:34:02;101863.92;;;24.57;46.69
46127;BME280;31859;55.030;-1.550;2022-08-06T11:36:43;101860.68;;;22.40;50.22
46127;BME280;31859;55.030;-1.550;2022-08-06T11:39:11;101868.24;;;24.13;48.91
46127;BME280;31859;55.030;-1.550;2022-08-06T11:41:57;101867.19;;;24.19;48.48
46127;BME280;31859;55.030;-1.550;2022-08-06T11:44:27;101859.33;;;23.93;44.97
46127;BME280;31859;55.030;-1.550;2022-08-06T11:47:27;101856.99;;;23.40;47.68
46127;BME280;31859;55.030;-1.550;2022-08-06T11:49:54;101860.13;;;23.26;51.59
46127;BME280;31859;55.030;-1.550;2022-08-06T11:52:55;101856.98;;;22.95;50.44
46127;BME280;31859;55.030;-1.550;2022-08-06T11:55:23;101862.59;;;21.27;55.70
46127;BME280;31859;55.030;-1.550;2022-08-06T11:57:50;101866.97;;;22.73;52.13
46127;BME280;31859;55.030;-1.550;2022-08-06T12:00:20;101855.56;;;22.79;52.09
46127;BME280;31859;55.030;-1.550;2022-08-06T12:02:53;101854.73;;;23.25;52.40
46127;BME280;31859;55.030;-1.550;2022-08-06T12:05:53;101847.84;;;22.48;52.79
46127;BME280;31859;55.030;-1.550;2022-08-06T12:08:22;101846.84;;;20.35;59.35
46127;BME280;31859;55.030;-1.550;2022-08-06T12:11:54;101840.78;;;22.20;59.24
46127;BME280;31859;55.030;-1.550;2022-08-06T12:14:58;101847.18;;;23.99;50.36
46127;BME280;31859;55.030;-1.550;2022-08-06T12:17:28;101846.08;;;24.33;46.89
46127;BME280;31859;55.030;-1.550;2022-08-06T12:19:58;101846.13;;;25.42;45.50
46127;BME280;31859;55.030;-1.550;2022-08-06T12:22:26;101845.26;;;25.83;44.50
46127;BME280;31859;55.030;-1.550;2022-08-06T12:24:55;101837.89;;;24.77;43.43
46127;BME280;31859;55.030;-1.550;2022-08-06T12:27:23;101846.79;;;22.84;48.00
46127;BME280;31859;55.030;-1.550;2022-08-06T12:29:56;101845.33;;;24.62;49.31
46127;BME280;31859;55.030;-1.550;2022-08-06T12:32:26;101851.00;;;24.19;47.50
46127;BME280;31859;55.030;-1.550;2022-08-06T12:34:55;101845.94;;;25.76;43.64
46127;BME280;31859;55.030;-1.550;2022-08-06T12:37:33;101852.02;;;24.29;48.08
46127;BME280;31859;55.030;-1.550;2022-08-06T12:40:00;101855.33;;;23.03;51.60
46127;BME280;31859;55.030;-1.550;2022-08-06T12:42:28;101848.60;;;23.02;53.49
46127;BME280;31859;55.030;-1.550;2022-08-06T12:44:56;101854.32;;;22.56;56.24
46127;BME280;31859;55.030;-1.550;2022-08-06T12:47:24;101850.64;;;21.98;57.33
46127;BME280;31859;55.030;-1.550;2022-08-06T12:49:51;101837.94;;;22.08;62.72
46127;BME280;31859;55.030;-1.550;2022-08-06T12:52:20;101835.97;;;23.45;57.89
46127;BME280;31859;55.030;-1.550;2022-08-06T12:54:49;101829.25;;;22.25;62.41